Cuyama, California
Current Conditions -  °F | °C
As of 7:15 PM on Monday 26 Jan 2015 (Local Time) from KIZA Reporting Station
Overcast Overcast  
Wind Chill: 61°   Ceiling: 9500
Heat Index: 61°   Visibility: 10mi
Dew Point: 37°   Wind: 12mph
Humidity: 42%   Direction: 100°E
Pressure: 30.03"   Gusts: NA
Location:  34.9984°N, 119.909°W
Report Text: KIZA 270315Z AUTO 10010KT 10SM BKN095 OVC110 16/03 A3003 RMK AO2
Loading
Personal Weather Stations






























Interactive Weather Map New forecast layout! Learn more

10-Day Weather Forecast

Advertisements
Track Severe Weather on mobile